sensor_id;sensor_type;location;lat;lon;timestamp;temperature;humidity
23591;DHT22;11973;52.098;7.582;2022-11-15T00:01:00;8.30;99.90
23591;DHT22;11973;52.098;7.582;2022-11-15T00:03:45;8.30;99.90
23591;DHT22;11973;52.098;7.582;2022-11-15T00:06:30;8.30;99.90
23591;DHT22;11973;52.098;7.582;2022-11-15T00:09:14;8.30;99.90
23591;DHT22;11973;52.098;7.582;2022-11-15T00:11:58;8.30;99.90
23591;DHT22;11973;52.098;7.582;2022-11-15T00:14:42;8.40;99.90
23591;DHT22;11973;52.098;7.582;2022-11-15T00:17:26;8.40;99.90
23591;DHT22;11973;52.098;7.582;2022-11-15T00:20:11;8.40;99.90
23591;DHT22;11973;52.098;7.582;2022-11-15T00:22:55;8.40;99.90
23591;DHT22;11973;52.098;7.582;2022-11-15T00:25:39;8.40;99.90
23591;DHT22;11973;52.098;7.582;2022-11-15T00:28:24;8.40;99.90
23591;DHT22;11973;52.098;7.582;2022-11-15T00:31:14;8.50;99.90
23591;DHT22;11973;52.098;7.582;2022-11-15T00:33:59;8.40;99.90
23591;DHT22;11973;52.098;7.582;2022-11-15T00:36:43;8.50;99.90
23591;DHT22;11973;52.098;7.582;2022-11-15T00:39:28;8.50;99.90
23591;DHT22;11973;52.098;7.582;2022-11-15T00:42:12;8.50;99.90
23591;DHT22;11973;52.098;7.582;2022-11-15T00:44:56;8.50;99.90
23591;DHT22;11973;52.098;7.582;2022-11-15T00:47:40;8.50;99.90
23591;DHT22;11973;52.098;7.582;2022-11-15T00:50:24;8.50;99.90
23591;DHT22;11973;52.098;7.582;2022-11-15T00:53:08;8.50;99.90
23591;DHT22;11973;52.098;7.582;2022-11-15T00:55:52;8.50;99.90
23591;DHT22;11973;52.098;7.582;2022-11-15T00:58:37;8.50;99.90
23591;DHT22;11973;52.098;7.582;2022-11-15T01:01:21;8.50;99.90
23591;DHT22;11973;52.098;7.582;2022-11-15T01:04:05;8.50;99.90
23591;DHT22;11973;52.098;7.582;2022-11-15T01:06:50;8.60;99.90
23591;DHT22;11973;52.098;7.582;2022-11-15T01:09:34;8.60;99.90
23591;DHT22;11973;52.098;7.582;2022-11-15T01:12:19;8.60;99.90
23591;DHT22;11973;52.098;7.582;2022-11-15T01:15:04;8.60;99.90
23591;DHT22;11973;52.098;7.582;2022-11-15T01:17:48;8.60;99.90
23591;DHT22;11973;52.098;7.582;2022-11-15T01:20:32;8.60;99.90
23591;DHT22;11973;52.098;7.582;2022-11-15T01:23:16;8.60;99.90
23591;DHT22;11973;52.098;7.582;2022-11-15T01:26:02;8.60;99.90
23591;DHT22;11973;52.098;7.582;2022-11-15T01:28:46;8.60;99.90
23591;DHT22;11973;52.098;7.582;2022-11-15T01:31:31;8.60;99.90
23591;DHT22;11973;52.098;7.582;2022-11-15T01:34:15;8.70;99.90
23591;DHT22;11973;52.098;7.582;2022-11-15T01:37:00;8.70;99.90
23591;DHT22;11973;52.098;7.582;2022-11-15T01:39:44;8.70;99.90
23591;DHT22;11973;52.098;7.582;2022-11-15T01:42:28;8.70;99.90
23591;DHT22;11973;52.098;7.582;2022-11-15T01:45:16;8.70;99.90
23591;DHT22;11973;52.098;7.582;2022-11-15T01:48:00;8.90;99.90
23591;DHT22;11973;52.098;7.582;2022-11-15T01:50:45;8.70;99.90
23591;DHT22;11973;52.098;7.582;2022-11-15T01:53:30;8.70;99.90
23591;DHT22;11973;52.098;7.582;2022-11-15T01:56:19;8.70;99.90
23591;DHT22;11973;52.098;7.582;2022-11-15T01:59:06;8.70;99.90
23591;DHT22;11973;52.098;7.582;2022-11-15T02:01:52;8.70;99.90
23591;DHT22;11973;52.098;7.582;2022-11-15T02:04:43;8.70;99.90
23591;DHT22;11973;52.098;7.582;2022-11-15T02:07:29;8.70;99.90
23591;DHT22;11973;52.098;7.582;2022-11-15T02:10:19;8.80;99.90
23591;DHT22;11973;52.098;7.582;2022-11-15T02:13:04;8.70;99.90
23591;DHT22;11973;52.098;7.582;2022-11-15T02:31:56;8.80;99.90
23591;DHT22;11973;52.098;7.582;2022-11-15T02:34:54;8.80;99.90
23591;DHT22;11973;52.098;7.582;2022-11-15T02:37:49;8.80;99.90
23591;DHT22;11973;52.098;7.582;2022-11-15T02:40:49;8.80;99.90
23591;DHT22;11973;52.098;7.582;2022-11-15T02:43:40;8.80;99.90
23591;DHT22;11973;52.098;7.582;2022-11-15T02:46:51;8.80;99.90
23591;DHT22;11973;52.098;7.582;2022-11-15T02:49:58;8.80;99.90
23591;DHT22;11973;52.098;7.582;2022-11-15T02:52:51;9.10;99.90
23591;DHT22;11973;52.098;7.582;2022-11-15T02:55:38;8.90;99.90
23591;DHT22;11973;52.098;7.582;2022-11-15T03:07:41;9.10;99.90
23591;DHT22;11973;52.098;7.582;2022-11-15T03:11:24;8.90;99.90
23591;DHT22;11973;52.098;7.582;2022-11-15T03:13:53;8.90;99.90
23591;DHT22;11973;52.098;7.582;2022-11-15T03:19:56;8.90;99.90
23591;DHT22;11973;52.098;7.582;2022-11-15T03:22:44;8.90;99.90
23591;DHT22;11973;52.098;7.582;2022-11-15T03:25:31;8.90;99.90
23591;DHT22;11973;52.098;7.582;2022-11-15T03:28:22;8.90;99.90
23591;DHT22;11973;52.098;7.582;2022-11-15T03:31:08;9.00;99.90
23591;DHT22;11973;52.098;7.582;2022-11-15T03:34:36;9.00;99.90
23591;DHT22;11973;52.098;7.582;2022-11-15T03:37:27;9.00;99.90
23591;DHT22;11973;52.098;7.582;2022-11-15T03:40:13;9.00;99.90
23591;DHT22;11973;52.098;7.582;2022-11-15T03:46:36;9.10;99.90
23591;DHT22;11973;52.098;7.582;2022-11-15T03:49:32;9.10;99.90
23591;DHT22;11973;52.098;7.582;2022-11-15T03:52:19;9.10;99.90
23591;DHT22;11973;52.098;7.582;2022-11-15T03:55:07;9.10;99.90
23591;DHT22;11973;52.098;7.582;2022-11-15T03:57:55;9.10;99.90
23591;DHT22;11973;52.098;7.582;2022-11-15T04:00:41;9.10;99.90
23591;DHT22;11973;52.098;7.582;2022-11-15T04:03:26;9.20;99.90
23591;DHT22;11973;52.098;7.582;2022-11-15T04:06:10;9.20;99.90
23591;DHT22;11973;52.098;7.582;2022-11-15T04:08:55;8.90;99.90
23591;DHT22;11973;52.098;7.582;2022-11-15T04:11:39;9.20;99.90
23591;DHT22;11973;52.098;7.582;2022-11-15T04:14:23;9.20;99.90
23591;DHT22;11973;52.098;7.582;2022-11-15T04:17:07;9.30;99.90
23591;DHT22;11973;52.098;7.582;2022-11-15T04:19:51;9.30;99.90
23591;DHT22;11973;52.098;7.582;2022-11-15T04:22:56;9.20;99.90
23591;DHT22;11973;52.098;7.582;2022-11-15T04:26:02;9.30;99.90
23591;DHT22;11973;52.098;7.582;2022-11-15T04:28:47;9.30;99.90
23591;DHT22;11973;52.098;7.582;2022-11-15T04:31:50;9.30;99.90
23591;DHT22;11973;52.098;7.582;2022-11-15T04:34:34;9.30;99.90
23591;DHT22;11973;52.098;7.582;2022-11-15T04:37:19;9.30;99.90
23591;DHT22;11973;52.098;7.582;2022-11-15T04:40:03;9.30;99.90
23591;DHT22;11973;52.098;7.582;2022-11-15T04:42:48;9.30;99.90
23591;DHT22;11973;52.098;7.582;2022-11-15T04:45:32;9.40;99.90
23591;DHT22;11973;52.098;7.582;2022-11-15T04:48:16;9.40;99.90
23591;DHT22;11973;52.098;7.582;2022-11-15T04:51:00;9.40;99.90
23591;DHT22;11973;52.098;7.582;2022-11-15T04:53:44;9.40;99.90
23591;DHT22;11973;52.098;7.582;2022-11-15T04:56:28;9.40;99.90
23591;DHT22;11973;52.098;7.582;2022-11-15T04:59:12;9.50;99.90
23591;DHT22;11973;52.098;7.582;2022-11-15T05:01:56;9.40;99.90
23591;DHT22;11973;52.098;7.582;2022-11-15T05:04:40;9.50;99.90
23591;DHT22;11973;52.098;7.582;2022-11-15T05:07:24;9.50;99.90
23591;DHT22;11973;52.098;7.582;2022-11-15T05:10:08;9.60;99.90
23591;DHT22;11973;52.098;7.582;2022-11-15T05:12:53;9.50;99.90
23591;DHT22;11973;52.098;7.582;2022-11-15T06:01:31;9.80;99.90
23591;DHT22;11973;52.098;7.582;2022-11-15T06:04:15;9.80;99.90
23591;DHT22;11973;52.098;7.582;2022-11-15T06:06:59;9.80;99.90
23591;DHT22;11973;52.098;7.582;2022-11-15T06:09:43;9.80;99.90
23591;DHT22;11973;52.098;7.582;2022-11-15T06:12:27;9.80;99.90
23591;DHT22;11973;52.098;7.582;2022-11-15T06:15:11;9.90;99.90
23591;DHT22;11973;52.098;7.582;2022-11-15T06:17:58;9.90;99.90
23591;DHT22;11973;52.098;7.582;2022-11-15T06:20:42;9.90;99.90
23591;DHT22;11973;52.098;7.582;2022-11-15T06:23:27;9.90;99.90
23591;DHT22;11973;52.098;7.582;2022-11-15T06:26:15;10.00;99.90
23591;DHT22;11973;52.098;7.582;2022-11-15T06:28:59;10.00;99.90
23591;DHT22;11973;52.098;7.582;2022-11-15T06:31:43;10.00;99.90
23591;DHT22;11973;52.098;7.582;2022-11-15T06:34:27;10.00;99.90
23591;DHT22;11973;52.098;7.582;2022-11-15T06:37:12;10.00;99.90
23591;DHT22;11973;52.098;7.582;2022-11-15T06:39:56;10.00;99.90
23591;DHT22;11973;52.098;7.582;2022-11-15T06:42:40;10.10;99.90
23591;DHT22;11973;52.098;7.582;2022-11-15T06:45:24;10.10;99.90
23591;DHT22;11973;52.098;7.582;2022-11-15T06:48:08;10.10;99.90
23591;DHT22;11973;52.098;7.582;2022-11-15T06:50:54;10.10;99.90
23591;DHT22;11973;52.098;7.582;2022-11-15T06:53:38;10.10;99.90
23591;DHT22;11973;52.098;7.582;2022-11-15T06:56:23;10.10;99.90
23591;DHT22;11973;52.098;7.582;2022-11-15T06:59:07;10.20;99.90
23591;DHT22;11973;52.098;7.582;2022-11-15T07:01:51;10.10;99.90
23591;DHT22;11973;52.098;7.582;2022-11-15T07:04:35;10.20;99.90
23591;DHT22;11973;52.098;7.582;2022-11-15T07:07:19;10.20;99.90
23591;DHT22;11973;52.098;7.582;2022-11-15T07:10:04;10.20;99.90
23591;DHT22;11973;52.098;7.582;2022-11-15T07:12:49;10.20;99.90
23591;DHT22;11973;52.098;7.582;2022-11-15T07:15:33;10.20;99.90
23591;DHT22;11973;52.098;7.582;2022-11-15T07:18:17;10.20;99.90
23591;DHT22;11973;52.098;7.582;2022-11-15T07:21:04;10.30;99.90
23591;DHT22;11973;52.098;7.582;2022-11-15T07:23:49;10.30;99.90
23591;DHT22;11973;52.098;7.582;2022-11-15T07:26:33;10.30;99.90
23591;DHT22;11973;52.098;7.582;2022-11-15T07:29:17;10.30;99.90
23591;DHT22;11973;52.098;7.582;2022-11-15T07:32:01;10.30;99.90
23591;DHT22;11973;52.098;7.582;2022-11-15T07:34:46;10.30;99.90
23591;DHT22;11973;52.098;7.582;2022-11-15T07:37:30;10.30;99.90
23591;DHT22;11973;52.098;7.582;2022-11-15T07:40:14;10.40;99.90
23591;DHT22;11973;52.098;7.582;2022-11-15T07:43:05;10.40;99.90
23591;DHT22;11973;52.098;7.582;2022-11-15T07:45:49;10.40;99.90
23591;DHT22;11973;52.098;7.582;2022-11-15T07:48:33;10.50;99.90
23591;DHT22;11973;52.098;7.582;2022-11-15T07:51:17;10.40;99.90
23591;DHT22;11973;52.098;7.582;2022-11-15T07:54:02;10.50;99.90
23591;DHT22;11973;52.098;7.582;2022-11-15T07:56:46;10.50;99.90
23591;DHT22;11973;52.098;7.582;2022-11-15T07:59:30;10.60;99.90
23591;DHT22;11973;52.098;7.582;2022-11-15T08:02:14;10.60;99.90
23591;DHT22;11973;52.098;7.582;2022-11-15T08:05:01;10.60;99.90
23591;DHT22;11973;52.098;7.582;2022-11-15T08:07:46;10.60;99.90
23591;DHT22;11973;52.098;7.582;2022-11-15T08:10:30;10.70;99.90
23591;DHT22;11973;52.098;7.582;2022-11-15T08:13:14;10.70;99.90
23591;DHT22;11973;52.098;7.582;2022-11-15T08:15:59;10.80;99.90
23591;DHT22;11973;52.098;7.582;2022-11-15T08:18:44;10.80;99.90
23591;DHT22;11973;52.098;7.582;2022-11-15T08:21:28;10.90;99.90
23591;DHT22;11973;52.098;7.582;2022-11-15T08:24:12;10.90;99.90
23591;DHT22;11973;52.098;7.582;2022-11-15T08:26:57;11.00;99.90
23591;DHT22;11973;52.098;7.582;2022-11-15T08:29:44;11.10;99.90
23591;DHT22;11973;52.098;7.582;2022-11-15T08:32:30;11.10;99.90
23591;DHT22;11973;52.098;7.582;2022-11-15T08:35:14;11.20;99.90
23591;DHT22;11973;52.098;7.582;2022-11-15T08:37:59;11.30;99.90
23591;DHT22;11973;52.098;7.582;2022-11-15T08:40:43;11.30;99.90
23591;DHT22;11973;52.098;7.582;2022-11-15T08:43:27;11.40;99.90
23591;DHT22;11973;52.098;7.582;2022-11-15T08:46:12;11.40;99.90
23591;DHT22;11973;52.098;7.582;2022-11-15T08:48:57;11.60;99.90
23591;DHT22;11973;52.098;7.582;2022-11-15T08:51:41;11.60;99.90
23591;DHT22;11973;52.098;7.582;2022-11-15T08:54:26;11.60;99.90
23591;DHT22;11973;52.098;7.582;2022-11-15T08:57:10;11.70;99.90
23591;DHT22;11973;52.098;7.582;2022-11-15T08:59:54;11.80;99.90
23591;DHT22;11973;52.098;7.582;2022-11-15T09:02:39;11.90;99.90
23591;DHT22;11973;52.098;7.582;2022-11-15T09:05:23;12.00;99.90
23591;DHT22;11973;52.098;7.582;2022-11-15T09:08:07;12.00;99.90
23591;DHT22;11973;52.098;7.582;2022-11-15T09:10:52;12.10;99.90
23591;DHT22;11973;52.098;7.582;2022-11-15T09:13:36;12.10;99.90
23591;DHT22;11973;52.098;7.582;2022-11-15T09:16:23;12.20;99.90
23591;DHT22;11973;52.098;7.582;2022-11-15T09:19:08;12.20;99.90
23591;DHT22;11973;52.098;7.582;2022-11-15T09:21:52;12.30;99.90
23591;DHT22;11973;52.098;7.582;2022-11-15T09:24:37;12.30;99.90
23591;DHT22;11973;52.098;7.582;2022-11-15T09:27:21;12.40;99.90
23591;DHT22;11973;52.098;7.582;2022-11-15T09:30:05;12.40;99.90
23591;DHT22;11973;52.098;7.582;2022-11-15T09:32:49;12.40;99.90
23591;DHT22;11973;52.098;7.582;2022-11-15T09:35:34;12.50;99.90
23591;DHT22;11973;52.098;7.582;2022-11-15T09:38:18;12.50;99.90
23591;DHT22;11973;52.098;7.582;2022-11-15T09:46:48;12.60;99.90
23591;DHT22;11973;52.098;7.582;2022-11-15T09:49:42;12.60;99.90
23591;DHT22;11973;52.098;7.582;2022-11-15T09:52:16;12.60;99.90
23591;DHT22;11973;52.098;7.582;2022-11-15T09:54:49;12.70;99.90
23591;DHT22;11973;52.098;7.582;2022-11-15T10:05:32;12.80;99.90
23591;DHT22;11973;52.098;7.582;2022-11-15T10:10:39;12.90;99.90
23591;DHT22;11973;52.098;7.582;2022-11-15T10:13:21;12.90;99.90
23591;DHT22;11973;52.098;7.582;2022-11-15T10:15:48;13.00;99.90
23591;DHT22;11973;52.098;7.582;2022-11-15T10:18:19;13.10;99.90
23591;DHT22;11973;52.098;7.582;2022-11-15T10:21:00;13.10;99.90
23591;DHT22;11973;52.098;7.582;2022-11-15T10:23:29;13.20;99.90
23591;DHT22;11973;52.098;7.582;2022-11-15T10:25:57;13.20;99.90
23591;DHT22;11973;52.098;7.582;2022-11-15T10:28:34;13.20;99.90
23591;DHT22;11973;52.098;7.582;2022-11-15T10:31:25;13.20;99.90
23591;DHT22;11973;52.098;7.582;2022-11-15T10:34:14;13.30;99.90
23591;DHT22;11973;52.098;7.582;2022-11-15T10:36:45;13.30;99.90
23591;DHT22;11973;52.098;7.582;2022-11-15T10:39:13;13.30;99.90
23591;DHT22;11973;52.098;7.582;2022-11-15T10:41:41;13.40;99.90
23591;DHT22;11973;52.098;7.582;2022-11-15T10:46:38;13.50;99.90
23591;DHT22;11973;52.098;7.582;2022-11-15T10:49:21;13.60;99.90
23591;DHT22;11973;52.098;7.582;2022-11-15T10:51:54;13.60;99.90
23591;DHT22;11973;52.098;7.582;2022-11-15T10:54:24;13.60;99.90
23591;DHT22;11973;52.098;7.582;2022-11-15T10:56:55;13.70;99.90
23591;DHT22;11973;52.098;7.582;2022-11-15T10:59:33;13.70;99.90
23591;DHT22;11973;52.098;7.582;2022-11-15T11:02:01;13.70;99.90
23591;DHT22;11973;52.098;7.582;2022-11-15T11:04:27;13.70;99.90
23591;DHT22;11973;52.098;7.582;2022-11-15T11:11:52;13.80;99.90
23591;DHT22;11973;52.098;7.582;2022-11-15T11:14:24;13.80;99.90
23591;DHT22;11973;52.098;7.582;2022-11-15T11:20:40;13.80;99.90
23591;DHT22;11973;52.098;7.582;2022-11-15T11:25:56;14.00;99.90
23591;DHT22;11973;52.098;7.582;2022-11-15T11:28:48;14.00;99.90
23591;DHT22;11973;52.098;7.582;2022-11-15T11:31:31;14.00;99.90
23591;DHT22;11973;52.098;7.582;2022-11-15T11:36:47;14.00;99.90
23591;DHT22;11973;52.098;7.582;2022-11-15T11:39:27;13.90;99.90
23591;DHT22;11973;52.098;7.582;2022-11-15T11:42:28;13.90;99.90
23591;DHT22;11973;52.098;7.582;2022-11-15T11:47:46;13.80;99.90
23591;DHT22;11973;52.098;7.582;2022-11-15T11:50:19;13.80;99.90
23591;DHT22;11973;52.098;7.582;2022-11-15T11:53:12;13.70;99.90
23591;DHT22;11973;52.098;7.582;2022-11-15T11:55:45;13.70;99.90
23591;DHT22;11973;52.098;7.582;2022-11-15T11:58:35;13.70;99.90
23591;DHT22;11973;52.098;7.582;2022-11-15T12:01:15;13.70;99.90
23591;DHT22;11973;52.098;7.582;2022-11-15T12:03:46;13.60;99.90
23591;DHT22;11973;52.098;7.582;2022-11-15T12:06:32;13.60;99.90
23591;DHT22;11973;52.098;7.582;2022-11-15T12:09:20;13.60;99.90
23591;DHT22;11973;52.098;7.582;2022-11-15T12:17:27;13.60;99.90
23591;DHT22;11973;52.098;7.582;2022-11-15T12:19:59;13.50;99.90
23591;DHT22;11973;52.098;7.582;2022-11-15T12:22:44;13.60;99.90
23591;DHT22;11973;52.098;7.582;2022-11-15T12:25:31;13.60;99.90
23591;DHT22;11973;52.098;7.582;2022-11-15T12:30:51;13.60;99.90
23591;DHT22;11973;52.098;7.582;2022-11-15T12:33:40;13.60;99.90
23591;DHT22;11973;52.098;7.582;2022-11-15T12:36:37;13.70;99.90
23591;DHT22;11973;52.098;7.582;2022-11-15T12:39:08;13.70;99.70
23591;DHT22;11973;52.098;7.582;2022-11-15T12:41:40;13.70;99.80
23591;DHT22;11973;52.098;7.582;2022-11-15T12:47:00;13.80;99.50
23591;DHT22;11973;52.098;7.582;2022-11-15T13:02:42;13.90;98.90
23591;DHT22;11973;52.098;7.582;2022-11-15T13:17:42;14.00;98.40
23591;DHT22;11973;52.098;7.582;2022-11-15T13:20:18;14.00;98.30
23591;DHT22;11973;52.098;7.582;2022-11-15T13:23:00;13.90;98.10
23591;DHT22;11973;52.098;7.582;2022-11-15T13:26:05;14.00;98.10
23591;DHT22;11973;52.098;7.582;2022-11-15T13:28:44;13.90;97.80
23591;DHT22;11973;52.098;7.582;2022-11-15T13:34:00;13.90;97.60
23591;DHT22;11973;52.098;7.582;2022-11-15T13:36:30;13.90;97.50
23591;DHT22;11973;52.098;7.582;2022-11-15T13:39:25;13.90;97.40
23591;DHT22;11973;52.098;7.582;2022-11-15T13:41:51;13.90;97.30
23591;DHT22;11973;52.098;7.582;2022-11-15T13:44:25;13.90;97.30
23591;DHT22;11973;52.098;7.582;2022-11-15T13:49:30;13.90;97.00
23591;DHT22;11973;52.098;7.582;2022-11-15T13:52:02;13.80;97.00
23591;DHT22;11973;52.098;7.582;2022-11-15T13:57:35;13.90;96.70
23591;DHT22;11973;52.098;7.582;2022-11-15T14:00:04;13.90;96.80
23591;DHT22;11973;52.098;7.582;2022-11-15T14:02:51;13.90;96.70
23591;DHT22;11973;52.098;7.582;2022-11-15T14:05:23;13.80;96.60
23591;DHT22;11973;52.098;7.582;2022-11-15T14:08:12;13.80;96.50
23591;DHT22;11973;52.098;7.582;2022-11-15T14:10:39;13.70;96.20
23591;DHT22;11973;52.098;7.582;2022-11-15T14:13:25;13.70;96.20
23591;DHT22;11973;52.098;7.582;2022-11-15T14:16:20;13.60;96.00
23591;DHT22;11973;52.098;7.582;2022-11-15T14:18:51;13.60;95.90
23591;DHT22;11973;52.098;7.582;2022-11-15T14:21:18;13.60;95.90
23591;DHT22;11973;52.098;7.582;2022-11-15T14:23:45;13.60;96.20
23591;DHT22;11973;52.098;7.582;2022-11-15T14:26:33;13.40;95.80
23591;DHT22;11973;52.098;7.582;2022-11-15T14:29:25;13.60;95.70
23591;DHT22;11973;52.098;7.582;2022-11-15T14:31:52;13.60;95.70
23591;DHT22;11973;52.098;7.582;2022-11-15T14:34:22;13.60;95.80
23591;DHT22;11973;52.098;7.582;2022-11-15T14:39:55;13.60;95.60
23591;DHT22;11973;52.098;7.582;2022-11-15T14:42:26;13.50;95.50
23591;DHT22;11973;52.098;7.582;2022-11-15T14:44:52;13.50;95.30
23591;DHT22;11973;52.098;7.582;2022-11-15T14:47:18;13.50;95.10
23591;DHT22;11973;52.098;7.582;2022-11-15T14:49:44;13.40;95.00
23591;DHT22;11973;52.098;7.582;2022-11-15T14:54:49;13.30;94.70
23591;DHT22;11973;52.098;7.582;2022-11-15T14:57:15;13.30;94.70
23591;DHT22;11973;52.098;7.582;2022-11-15T14:59:41;13.20;94.50
23591;DHT22;11973;52.098;7.582;2022-11-15T15:02:17;13.10;94.40
23591;DHT22;11973;52.098;7.582;2022-11-15T15:04:43;13.00;94.30
23591;DHT22;11973;52.098;7.582;2022-11-15T15:07:09;13.00;94.20
23591;DHT22;11973;52.098;7.582;2022-11-15T15:09:35;12.90;94.10
23591;DHT22;11973;52.098;7.582;2022-11-15T15:12:00;12.80;94.00
23591;DHT22;11973;52.098;7.582;2022-11-15T15:14:26;12.70;94.00
23591;DHT22;11973;52.098;7.582;2022-11-15T15:16:52;12.70;93.90
23591;DHT22;11973;52.098;7.582;2022-11-15T15:19:17;12.60;93.90
23591;DHT22;11973;52.098;7.582;2022-11-15T15:21:43;12.50;93.70
23591;DHT22;11973;52.098;7.582;2022-11-15T15:24:14;12.40;93.80
23591;DHT22;11973;52.098;7.582;2022-11-15T15:26:40;12.30;93.70
23591;DHT22;11973;52.098;7.582;2022-11-15T15:29:06;12.20;93.60
23591;DHT22;11973;52.098;7.582;2022-11-15T15:31:34;12.20;93.70
23591;DHT22;11973;52.098;7.582;2022-11-15T15:34:00;12.10;93.70
23591;DHT22;11973;52.098;7.582;2022-11-15T15:36:26;12.00;93.70
23591;DHT22;11973;52.098;7.582;2022-11-15T15:38:52;12.00;93.70
23591;DHT22;11973;52.098;7.582;2022-11-15T15:41:21;12.00;94.10
23591;DHT22;11973;52.098;7.582;2022-11-15T15:43:46;11.90;93.80
23591;DHT22;11973;52.098;7.582;2022-11-15T15:46:18;11.90;93.70
23591;DHT22;11973;52.098;7.582;2022-11-15T15:48:44;11.90;93.70
23591;DHT22;11973;52.098;7.582;2022-11-15T15:51:10;11.80;93.60
23591;DHT22;11973;52.098;7.582;2022-11-15T15:53:37;11.80;93.50
23591;DHT22;11973;52.098;7.582;2022-11-15T15:56:03;11.70;93.70
23591;DHT22;11973;52.098;7.582;2022-11-15T15:58:30;11.60;93.40
23591;DHT22;11973;52.098;7.582;2022-11-15T16:00:57;11.60;93.30
23591;DHT22;11973;52.098;7.582;2022-11-15T16:03:23;11.50;93.20
23591;DHT22;11973;52.098;7.582;2022-11-15T16:05:49;11.50;93.20
23591;DHT22;11973;52.098;7.582;2022-11-15T16:08:20;11.40;93.30
23591;DHT22;11973;52.098;7.582;2022-11-15T16:10:47;11.50;93.30
23591;DHT22;11973;52.098;7.582;2022-11-15T16:13:13;11.30;93.20
23591;DHT22;11973;52.098;7.582;2022-11-15T16:15:39;11.30;93.20
23591;DHT22;11973;52.098;7.582;2022-11-15T16:18:05;11.20;93.20
23591;DHT22;11973;52.098;7.582;2022-11-15T16:20:44;11.20;93.20
23591;DHT22;11973;52.098;7.582;2022-11-15T16:23:13;11.20;93.10
23591;DHT22;11973;52.098;7.582;2022-11-15T16:25:53;11.10;93.10
23591;DHT22;11973;52.098;7.582;2022-11-15T16:28:32;11.00;93.00
23591;DHT22;11973;52.098;7.582;2022-11-15T16:31:03;11.00;93.00
23591;DHT22;11973;52.098;7.582;2022-11-15T16:33:29;10.90;93.00
23591;DHT22;11973;52.098;7.582;2022-11-15T16:35:55;10.90;93.00
23591;DHT22;11973;52.098;7.582;2022-11-15T16:38:21;10.80;92.90
23591;DHT22;11973;52.098;7.582;2022-11-15T16:40:47;10.80;92.90
23591;DHT22;11973;52.098;7.582;2022-11-15T16:43:12;10.70;92.90
23591;DHT22;11973;52.098;7.582;2022-11-15T16:45:38;10.70;92.90
23591;DHT22;11973;52.098;7.582;2022-11-15T16:48:04;10.60;92.90
23591;DHT22;11973;52.098;7.582;2022-11-15T16:50:32;10.60;92.90
23591;DHT22;11973;52.098;7.582;2022-11-15T16:53:04;10.50;92.90
23591;DHT22;11973;52.098;7.582;2022-11-15T16:55:30;10.50;92.90
23591;DHT22;11973;52.098;7.582;2022-11-15T16:57:56;10.50;93.00
23591;DHT22;11973;52.098;7.582;2022-11-15T17:00:26;10.50;93.10
23591;DHT22;11973;52.098;7.582;2022-11-15T17:02:52;10.50;93.10
23591;DHT22;11973;52.098;7.582;2022-11-15T17:05:20;10.50;93.20
23591;DHT22;11973;52.098;7.582;2022-11-15T17:07:47;10.50;93.30
23591;DHT22;11973;52.098;7.582;2022-11-15T17:10:15;10.50;93.30
23591;DHT22;11973;52.098;7.582;2022-11-15T17:12:42;10.60;93.30
23591;DHT22;11973;52.098;7.582;2022-11-15T17:15:11;10.60;93.30
23591;DHT22;11973;52.098;7.582;2022-11-15T17:17:37;10.60;93.30
23591;DHT22;11973;52.098;7.582;2022-11-15T17:20:03;10.60;93.30
23591;DHT22;11973;52.098;7.582;2022-11-15T17:22:29;10.60;93.30
23591;DHT22;11973;52.098;7.582;2022-11-15T17:24:55;10.60;93.20
23591;DHT22;11973;52.098;7.582;2022-11-15T17:27:22;10.70;93.30
23591;DHT22;11973;52.098;7.582;2022-11-15T17:29:48;10.60;93.20
23591;DHT22;11973;52.098;7.582;2022-11-15T17:32:14;10.60;93.30
23591;DHT22;11973;52.098;7.582;2022-11-15T17:34:39;10.60;93.30
23591;DHT22;11973;52.098;7.582;2022-11-15T17:37:06;10.70;93.30
23591;DHT22;11973;52.098;7.582;2022-11-15T17:39:31;10.80;93.40
23591;DHT22;11973;52.098;7.582;2022-11-15T17:41:57;10.80;93.50
23591;DHT22;11973;52.098;7.582;2022-11-15T17:44:23;10.70;93.40
23591;DHT22;11973;52.098;7.582;2022-11-15T17:46:49;10.70;93.50
23591;DHT22;11973;52.098;7.582;2022-11-15T17:49:14;10.80;93.50
23591;DHT22;11973;52.098;7.582;2022-11-15T17:51:40;10.80;93.50
23591;DHT22;11973;52.098;7.582;2022-11-15T17:54:09;10.80;93.50
23591;DHT22;11973;52.098;7.582;2022-11-15T17:56:38;10.90;93.60
23591;DHT22;11973;52.098;7.582;2022-11-15T17:59:07;10.90;93.60
23591;DHT22;11973;52.098;7.582;2022-11-15T18:01:35;11.00;93.70
23591;DHT22;11973;52.098;7.582;2022-11-15T18:04:03;11.00;93.70
23591;DHT22;11973;52.098;7.582;2022-11-15T18:06:31;11.10;93.70
23591;DHT22;11973;52.098;7.582;2022-11-15T18:08:58;11.10;93.70
23591;DHT22;11973;52.098;7.582;2022-11-15T18:11:26;11.10;93.60
23591;DHT22;11973;52.098;7.582;2022-11-15T18:13:55;11.20;93.70
23591;DHT22;11973;52.098;7.582;2022-11-15T18:16:23;11.20;93.70
23591;DHT22;11973;52.098;7.582;2022-11-15T18:18:53;11.30;93.80
23591;DHT22;11973;52.098;7.582;2022-11-15T18:21:27;11.30;93.80
23591;DHT22;11973;52.098;7.582;2022-11-15T18:23:55;11.30;93.80
23591;DHT22;11973;52.098;7.582;2022-11-15T18:26:22;11.30;93.80
23591;DHT22;11973;52.098;7.582;2022-11-15T18:29:02;11.40;93.80
23591;DHT22;11973;52.098;7.582;2022-11-15T18:31:29;11.40;93.80
23591;DHT22;11973;52.098;7.582;2022-11-15T18:33:58;11.40;93.90
23591;DHT22;11973;52.098;7.582;2022-11-15T18:36:27;11.40;93.90
23591;DHT22;11973;52.098;7.582;2022-11-15T18:38:59;11.40;93.90
23591;DHT22;11973;52.098;7.582;2022-11-15T18:41:27;11.40;93.90
23591;DHT22;11973;52.098;7.582;2022-11-15T18:43:57;11.50;94.00
23591;DHT22;11973;52.098;7.582;2022-11-15T18:46:25;11.50;94.10
23591;DHT22;11973;52.098;7.582;2022-11-15T18:48:52;11.50;94.10
23591;DHT22;11973;52.098;7.582;2022-11-15T18:51:21;11.50;94.10
23591;DHT22;11973;52.098;7.582;2022-11-15T18:53:47;11.60;94.20
23591;DHT22;11973;52.098;7.582;2022-11-15T18:56:18;11.60;94.30
23591;DHT22;11973;52.098;7.582;2022-11-15T18:58:46;11.60;94.30
23591;DHT22;11973;52.098;7.582;2022-11-15T19:01:15;11.60;94.30
23591;DHT22;11973;52.098;7.582;2022-11-15T19:03:43;11.60;94.40
23591;DHT22;11973;52.098;7.582;2022-11-15T19:06:17;11.60;94.40
23591;DHT22;11973;52.098;7.582;2022-11-15T19:08:44;11.60;94.40
23591;DHT22;11973;52.098;7.582;2022-11-15T19:11:16;11.60;94.50
23591;DHT22;11973;52.098;7.582;2022-11-15T19:13:43;11.60;94.50
23591;DHT22;11973;52.098;7.582;2022-11-15T19:16:11;11.70;94.50
23591;DHT22;11973;52.098;7.582;2022-11-15T19:18:37;11.60;94.50
23591;DHT22;11973;52.098;7.582;2022-11-15T19:21:09;11.60;94.60
23591;DHT22;11973;52.098;7.582;2022-11-15T19:23:39;11.70;94.70
23591;DHT22;11973;52.098;7.582;2022-11-15T19:26:09;11.70;94.70
23591;DHT22;11973;52.098;7.582;2022-11-15T19:28:35;11.70;94.80
23591;DHT22;11973;52.098;7.582;2022-11-15T19:31:07;11.70;94.80